sensor_id;sensor_type;location;lat;lon;timestamp;temperature;humidity
71839;SHT31;59687;37.520;15.068;2022-08-01T00:02:20;27.12;71.55
71839;SHT31;59687;37.520;15.068;2022-08-01T00:04:47;27.03;71.94
71839;SHT31;59687;37.520;15.068;2022-08-01T00:07:15;27.08;71.73
71839;SHT31;59687;37.520;15.068;2022-08-01T00:09:42;27.31;70.95
71839;SHT31;59687;37.520;15.068;2022-08-01T00:12:10;27.24;70.93
71839;SHT31;59687;37.520;15.068;2022-08-01T00:14:37;27.28;70.80
71839;SHT31;59687;37.520;15.068;2022-08-01T00:17:05;27.20;70.73
71839;SHT31;59687;37.520;15.068;2022-08-01T00:19:33;27.22;70.15
71839;SHT31;59687;37.520;15.068;2022-08-01T00:22:00;27.21;70.13
71839;SHT31;59687;37.520;15.068;2022-08-01T00:24:28;27.31;69.94
71839;SHT31;59687;37.520;15.068;2022-08-01T00:26:57;27.07;70.39
71839;SHT31;59687;37.520;15.068;2022-08-01T00:29:31;26.96;70.76
71839;SHT31;59687;37.520;15.068;2022-08-01T00:31:59;27.06;70.31
71839;SHT31;59687;37.520;15.068;2022-08-01T00:34:26;27.07;70.66
71839;SHT31;59687;37.520;15.068;2022-08-01T00:36:53;27.11;70.48
71839;SHT31;59687;37.520;15.068;2022-08-01T00:39:20;27.04;70.72
71839;SHT31;59687;37.520;15.068;2022-08-01T00:41:47;27.10;70.80
71839;SHT31;59687;37.520;15.068;2022-08-01T00:44:16;27.12;70.79
71839;SHT31;59687;37.520;15.068;2022-08-01T00:46:43;27.14;70.92
71839;SHT31;59687;37.520;15.068;2022-08-01T00:49:13;27.14;71.02
71839;SHT31;59687;37.520;15.068;2022-08-01T00:51:40;26.98;71.52
71839;SHT31;59687;37.520;15.068;2022-08-01T00:54:07;26.98;71.68
71839;SHT31;59687;37.520;15.068;2022-08-01T00:56:38;26.98;72.13
71839;SHT31;59687;37.520;15.068;2022-08-01T00:59:07;26.91;72.40
71839;SHT31;59687;37.520;15.068;2022-08-01T01:01:34;26.87;72.77
71839;SHT31;59687;37.520;15.068;2022-08-01T01:04:05;26.96;73.61
71839;SHT31;59687;37.520;15.068;2022-08-01T01:09:11;27.08;73.39
71839;SHT31;59687;37.520;15.068;2022-08-01T01:11:59;27.06;73.39
71839;SHT31;59687;37.520;15.068;2022-08-01T01:15:13;26.96;73.64
71839;SHT31;59687;37.520;15.068;2022-08-01T01:20:21;26.75;74.03
71839;SHT31;59687;37.520;15.068;2022-08-01T01:23:15;26.75;73.90
71839;SHT31;59687;37.520;15.068;2022-08-01T01:26:04;26.69;73.94
71839;SHT31;59687;37.520;15.068;2022-08-01T01:31:25;26.57;73.66
71839;SHT31;59687;37.520;15.068;2022-08-01T01:33:53;26.57;73.47
71839;SHT31;59687;37.520;15.068;2022-08-01T01:36:21;26.68;73.29
71839;SHT31;59687;37.520;15.068;2022-08-01T01:38:50;26.82;72.67
71839;SHT31;59687;37.520;15.068;2022-08-01T01:41:20;26.62;73.02
71839;SHT31;59687;37.520;15.068;2022-08-01T01:43:49;26.52;73.53
71839;SHT31;59687;37.520;15.068;2022-08-01T01:46:39;26.52;73.48
71839;SHT31;59687;37.520;15.068;2022-08-01T01:49:08;26.51;73.43
71839;SHT31;59687;37.520;15.068;2022-08-01T01:51:38;26.45;73.54
71839;SHT31;59687;37.520;15.068;2022-08-01T01:54:09;26.41;73.72
71839;SHT31;59687;37.520;15.068;2022-08-01T01:56:39;26.38;73.83
71839;SHT31;59687;37.520;15.068;2022-08-01T01:59:19;26.34;73.73
71839;SHT31;59687;37.520;15.068;2022-08-01T02:01:52;26.34;73.74
71839;SHT31;59687;37.520;15.068;2022-08-01T02:04:22;26.39;73.53
71839;SHT31;59687;37.520;15.068;2022-08-01T02:06:51;26.34;73.56
71839;SHT31;59687;37.520;15.068;2022-08-01T02:09:20;26.35;73.61
71839;SHT31;59687;37.520;15.068;2022-08-01T02:11:50;26.44;73.45
71839;SHT31;59687;37.520;15.068;2022-08-01T02:14:22;26.38;73.60
71839;SHT31;59687;37.520;15.068;2022-08-01T02:16:50;26.31;74.07
71839;SHT31;59687;37.520;15.068;2022-08-01T02:19:19;26.29;74.38
71839;SHT31;59687;37.520;15.068;2022-08-01T02:22:07;26.24;74.76
71839;SHT31;59687;37.520;15.068;2022-08-01T02:24:43;26.24;75.17
71839;SHT31;59687;37.520;15.068;2022-08-01T02:27:15;26.24;75.10
71839;SHT31;59687;37.520;15.068;2022-08-01T02:29:53;26.22;75.04
71839;SHT31;59687;37.520;15.068;2022-08-01T02:32:36;26.18;75.13
71839;SHT31;59687;37.520;15.068;2022-08-01T02:35:05;26.18;74.38
71839;SHT31;59687;37.520;15.068;2022-08-01T02:37:36;26.25;73.37
71839;SHT31;59687;37.520;15.068;2022-08-01T02:40:05;26.21;73.27
71839;SHT31;59687;37.520;15.068;2022-08-01T02:42:37;26.17;73.23
71839;SHT31;59687;37.520;15.068;2022-08-01T02:45:09;26.20;73.04
71839;SHT31;59687;37.520;15.068;2022-08-01T02:47:38;26.16;72.60
71839;SHT31;59687;37.520;15.068;2022-08-01T02:50:07;26.16;72.52
71839;SHT31;59687;37.520;15.068;2022-08-01T02:52:41;26.13;72.22
71839;SHT31;59687;37.520;15.068;2022-08-01T02:55:09;26.08;72.11
71839;SHT31;59687;37.520;15.068;2022-08-01T02:57:37;26.07;71.63
71839;SHT31;59687;37.520;15.068;2022-08-01T03:00:08;26.04;71.28
71839;SHT31;59687;37.520;15.068;2022-08-01T03:02:36;26.03;71.04
71839;SHT31;59687;37.520;15.068;2022-08-01T03:05:04;26.05;71.39
71839;SHT31;59687;37.520;15.068;2022-08-01T03:07:32;26.14;69.16
71839;SHT31;59687;37.520;15.068;2022-08-01T03:10:08;26.03;68.79
71839;SHT31;59687;37.520;15.068;2022-08-01T03:12:42;25.92;68.74
71839;SHT31;59687;37.520;15.068;2022-08-01T03:15:11;25.87;68.24
71839;SHT31;59687;37.520;15.068;2022-08-01T03:17:40;26.03;67.94
71839;SHT31;59687;37.520;15.068;2022-08-01T03:20:11;25.96;67.73
71839;SHT31;59687;37.520;15.068;2022-08-01T03:22:40;25.89;67.99
71839;SHT31;59687;37.520;15.068;2022-08-01T03:25:10;25.82;68.37
71839;SHT31;59687;37.520;15.068;2022-08-01T03:27:48;25.77;68.46
71839;SHT31;59687;37.520;15.068;2022-08-01T03:30:17;25.76;68.55
71839;SHT31;59687;37.520;15.068;2022-08-01T03:32:47;25.72;68.60
71839;SHT31;59687;37.520;15.068;2022-08-01T03:35:14;25.73;68.49
71839;SHT31;59687;37.520;15.068;2022-08-01T03:37:50;25.73;68.48
71839;SHT31;59687;37.520;15.068;2022-08-01T03:40:49;25.73;68.42
71839;SHT31;59687;37.520;15.068;2022-08-01T03:43:33;25.70;68.46
71839;SHT31;59687;37.520;15.068;2022-08-01T03:46:06;25.66;68.62
71839;SHT31;59687;37.520;15.068;2022-08-01T03:48:39;25.65;68.69
71839;SHT31;59687;37.520;15.068;2022-08-01T03:51:07;25.70;68.30
71839;SHT31;59687;37.520;15.068;2022-08-01T03:53:38;25.61;68.09
71839;SHT31;59687;37.520;15.068;2022-08-01T03:56:07;25.59;67.62
71839;SHT31;59687;37.520;15.068;2022-08-01T03:58:38;25.62;66.91
71839;SHT31;59687;37.520;15.068;2022-08-01T04:01:06;25.56;66.97
71839;SHT31;59687;37.520;15.068;2022-08-01T04:03:36;25.56;66.73
71839;SHT31;59687;37.520;15.068;2022-08-01T04:06:06;25.58;66.14
71839;SHT31;59687;37.520;15.068;2022-08-01T04:08:37;25.59;65.82
71839;SHT31;59687;37.520;15.068;2022-08-01T04:11:10;25.62;65.68
71839;SHT31;59687;37.520;15.068;2022-08-01T04:13:40;25.73;64.76
71839;SHT31;59687;37.520;15.068;2022-08-01T04:16:06;25.76;64.60
71839;SHT31;59687;37.520;15.068;2022-08-01T04:18:35;25.93;63.69
71839;SHT31;59687;37.520;15.068;2022-08-01T04:21:04;25.82;62.93
71839;SHT31;59687;37.520;15.068;2022-08-01T04:23:33;25.79;62.54
71839;SHT31;59687;37.520;15.068;2022-08-01T04:26:03;25.87;62.41
71839;SHT31;59687;37.520;15.068;2022-08-01T04:28:36;26.05;61.62
71839;SHT31;59687;37.520;15.068;2022-08-01T04:31:06;26.16;61.25
71839;SHT31;59687;37.520;15.068;2022-08-01T04:33:47;26.39;60.53
71839;SHT31;59687;37.520;15.068;2022-08-01T04:36:19;26.44;60.80
71839;SHT31;59687;37.520;15.068;2022-08-01T04:38:50;26.55;60.58
71839;SHT31;59687;37.520;15.068;2022-08-01T04:41:19;26.55;60.65
71839;SHT31;59687;37.520;15.068;2022-08-01T04:43:50;26.64;60.58
71839;SHT31;59687;37.520;15.068;2022-08-01T04:46:19;26.86;60.27
71839;SHT31;59687;37.520;15.068;2022-08-01T04:51:54;27.35;58.29
71839;SHT31;59687;37.520;15.068;2022-08-01T04:54:34;27.56;57.16
71839;SHT31;59687;37.520;15.068;2022-08-01T04:57:06;27.73;55.89
71839;SHT31;59687;37.520;15.068;2022-08-01T04:59:35;27.98;55.33
71839;SHT31;59687;37.520;15.068;2022-08-01T05:02:07;28.15;54.83
71839;SHT31;59687;37.520;15.068;2022-08-01T05:04:36;28.39;54.00
71839;SHT31;59687;37.520;15.068;2022-08-01T05:07:04;28.66;53.69
71839;SHT31;59687;37.520;15.068;2022-08-01T05:09:32;28.89;53.32
71839;SHT31;59687;37.520;15.068;2022-08-01T05:11:59;29.03;53.23
71839;SHT31;59687;37.520;15.068;2022-08-01T05:14:34;29.22;53.10
71839;SHT31;59687;37.520;15.068;2022-08-01T05:17:03;29.38;53.00
71839;SHT31;59687;37.520;15.068;2022-08-01T05:19:30;29.50;53.32
71839;SHT31;59687;37.520;15.068;2022-08-01T05:22:02;29.86;53.56
71839;SHT31;59687;37.520;15.068;2022-08-01T05:24:37;29.90;53.91
71839;SHT31;59687;37.520;15.068;2022-08-01T05:27:06;30.04;53.90
71839;SHT31;59687;37.520;15.068;2022-08-01T05:29:35;30.14;53.55
71839;SHT31;59687;37.520;15.068;2022-08-01T05:32:05;30.07;54.06
71839;SHT31;59687;37.520;15.068;2022-08-01T05:34:33;30.32;54.36
71839;SHT31;59687;37.520;15.068;2022-08-01T05:37:01;30.49;54.89
71839;SHT31;59687;37.520;15.068;2022-08-01T05:39:29;30.64;55.10
71839;SHT31;59687;37.520;15.068;2022-08-01T05:41:56;30.70;55.09
71839;SHT31;59687;37.520;15.068;2022-08-01T05:44:26;30.79;55.39
71839;SHT31;59687;37.520;15.068;2022-08-01T05:46:55;30.90;55.18
71839;SHT31;59687;37.520;15.068;2022-08-01T05:49:23;31.05;54.72
71839;SHT31;59687;37.520;15.068;2022-08-01T05:51:51;30.99;54.19
71839;SHT31;59687;37.520;15.068;2022-08-01T05:54:20;31.08;54.42
71839;SHT31;59687;37.520;15.068;2022-08-01T05:56:48;30.98;54.06
71839;SHT31;59687;37.520;15.068;2022-08-01T05:59:15;31.21;53.74
71839;SHT31;59687;37.520;15.068;2022-08-01T06:01:43;31.11;52.58
71839;SHT31;59687;37.520;15.068;2022-08-01T06:04:10;31.42;53.01
71839;SHT31;59687;37.520;15.068;2022-08-01T06:06:41;31.42;53.00
71839;SHT31;59687;37.520;15.068;2022-08-01T06:09:09;30.51;54.80
71839;SHT31;59687;37.520;15.068;2022-08-01T06:11:38;30.62;54.08
71839;SHT31;59687;37.520;15.068;2022-08-01T06:14:06;30.97;53.35
71839;SHT31;59687;37.520;15.068;2022-08-01T06:16:37;30.63;53.05
71839;SHT31;59687;37.520;15.068;2022-08-01T06:19:05;30.98;51.91
71839;SHT31;59687;37.520;15.068;2022-08-01T06:21:32;30.92;49.99
71839;SHT31;59687;37.520;15.068;2022-08-01T06:24:00;30.94;48.97
71839;SHT31;59687;37.520;15.068;2022-08-01T06:26:29;31.28;47.20
71839;SHT31;59687;37.520;15.068;2022-08-01T06:29:00;31.42;46.30
71839;SHT31;59687;37.520;15.068;2022-08-01T06:31:28;31.63;47.14
71839;SHT31;59687;37.520;15.068;2022-08-01T06:33:59;32.10;47.35
71839;SHT31;59687;37.520;15.068;2022-08-01T06:36:26;32.66;46.70
71839;SHT31;59687;37.520;15.068;2022-08-01T06:39:01;32.11;46.74
71839;SHT31;59687;37.520;15.068;2022-08-01T06:41:29;31.29;48.63
71839;SHT31;59687;37.520;15.068;2022-08-01T06:43:59;31.78;47.25
71839;SHT31;59687;37.520;15.068;2022-08-01T06:46:30;31.98;46.09
71839;SHT31;59687;37.520;15.068;2022-08-01T06:49:01;32.43;45.79
71839;SHT31;59687;37.520;15.068;2022-08-01T06:51:29;33.07;44.21
71839;SHT31;59687;37.520;15.068;2022-08-01T06:53:56;33.45;43.30
71839;SHT31;59687;37.520;15.068;2022-08-01T06:56:23;33.39;43.61
71839;SHT31;59687;37.520;15.068;2022-08-01T06:58:50;33.76;43.47
71839;SHT31;59687;37.520;15.068;2022-08-01T07:01:17;34.01;43.38
71839;SHT31;59687;37.520;15.068;2022-08-01T07:03:44;34.10;42.81
71839;SHT31;59687;37.520;15.068;2022-08-01T07:06:15;34.21;42.02
71839;SHT31;59687;37.520;15.068;2022-08-01T07:08:43;33.98;41.28
71839;SHT31;59687;37.520;15.068;2022-08-01T07:11:09;33.94;40.82
71839;SHT31;59687;37.520;15.068;2022-08-01T07:13:36;33.83;41.15
71839;SHT31;59687;37.520;15.068;2022-08-01T07:16:03;33.93;39.95
71839;SHT31;59687;37.520;15.068;2022-08-01T07:18:31;33.52;40.89
71839;SHT31;59687;37.520;15.068;2022-08-01T07:21:04;33.10;41.38
71839;SHT31;59687;37.520;15.068;2022-08-01T07:23:31;32.94;41.33
71839;SHT31;59687;37.520;15.068;2022-08-01T07:25:59;33.19;41.34
71839;SHT31;59687;37.520;15.068;2022-08-01T07:28:28;33.49;40.79
71839;SHT31;59687;37.520;15.068;2022-08-01T07:30:57;33.62;40.07
71839;SHT31;59687;37.520;15.068;2022-08-01T07:33:23;33.67;40.39
71839;SHT31;59687;37.520;15.068;2022-08-01T07:35:51;33.56;40.86
71839;SHT31;59687;37.520;15.068;2022-08-01T07:38:18;33.48;41.27
71839;SHT31;59687;37.520;15.068;2022-08-01T07:40:47;33.55;41.46
71839;SHT31;59687;37.520;15.068;2022-08-01T07:43:14;33.86;40.95
71839;SHT31;59687;37.520;15.068;2022-08-01T07:45:43;33.83;41.11
71839;SHT31;59687;37.520;15.068;2022-08-01T07:48:11;33.96;41.42
71839;SHT31;59687;37.520;15.068;2022-08-01T07:50:38;34.07;41.84
71839;SHT31;59687;37.520;15.068;2022-08-01T07:53:05;34.19;41.78
71839;SHT31;59687;37.520;15.068;2022-08-01T07:55:39;34.29;41.39
71839;SHT31;59687;37.520;15.068;2022-08-01T07:58:06;34.56;41.62
71839;SHT31;59687;37.520;15.068;2022-08-01T08:00:40;34.88;41.06
71839;SHT31;59687;37.520;15.068;2022-08-01T08:03:07;35.24;40.93
71839;SHT31;59687;37.520;15.068;2022-08-01T08:05:37;35.14;41.05
71839;SHT31;59687;37.520;15.068;2022-08-01T08:08:06;34.63;42.13
71839;SHT31;59687;37.520;15.068;2022-08-01T08:10:34;34.80;42.03
71839;SHT31;59687;37.520;15.068;2022-08-01T08:13:06;35.10;41.28
71839;SHT31;59687;37.520;15.068;2022-08-01T08:15:33;35.37;40.49
71839;SHT31;59687;37.520;15.068;2022-08-01T08:18:06;35.07;41.77
71839;SHT31;59687;37.520;15.068;2022-08-01T08:20:36;34.57;42.79
71839;SHT31;59687;37.520;15.068;2022-08-01T08:23:06;34.67;42.50
71839;SHT31;59687;37.520;15.068;2022-08-01T08:25:53;34.53;43.18
71839;SHT31;59687;37.520;15.068;2022-08-01T08:28:24;34.19;43.43
71839;SHT31;59687;37.520;15.068;2022-08-01T08:30:54;34.44;43.00
71839;SHT31;59687;37.520;15.068;2022-08-01T08:33:23;34.74;42.83
71839;SHT31;59687;37.520;15.068;2022-08-01T08:35:50;34.80;43.30
71839;SHT31;59687;37.520;15.068;2022-08-01T08:38:18;34.55;43.42
71839;SHT31;59687;37.520;15.068;2022-08-01T08:40:47;34.62;42.99
71839;SHT31;59687;37.520;15.068;2022-08-01T08:43:16;34.93;42.30
71839;SHT31;59687;37.520;15.068;2022-08-01T08:45:46;35.35;41.73
71839;SHT31;59687;37.520;15.068;2022-08-01T08:48:13;35.89;40.06
71839;SHT31;59687;37.520;15.068;2022-08-01T08:50:43;35.80;39.81
71839;SHT31;59687;37.520;15.068;2022-08-01T08:53:13;35.73;40.12
71839;SHT31;59687;37.520;15.068;2022-08-01T08:55:44;35.45;40.68
71839;SHT31;59687;37.520;15.068;2022-08-01T08:58:12;35.55;40.62
71839;SHT31;59687;37.520;15.068;2022-08-01T09:00:40;35.77;39.75
71839;SHT31;59687;37.520;15.068;2022-08-01T09:03:08;35.91;39.78
71839;SHT31;59687;37.520;15.068;2022-08-01T09:05:38;36.49;39.42
71839;SHT31;59687;37.520;15.068;2022-08-01T09:08:09;37.20;37.52
71839;SHT31;59687;37.520;15.068;2022-08-01T09:10:36;36.83;37.89
71839;SHT31;59687;37.520;15.068;2022-08-01T09:13:11;36.27;39.00
71839;SHT31;59687;37.520;15.068;2022-08-01T09:15:47;35.38;41.08
71839;SHT31;59687;37.520;15.068;2022-08-01T09:18:35;36.29;39.84
71839;SHT31;59687;37.520;15.068;2022-08-01T09:21:17;36.46;38.58
71839;SHT31;59687;37.520;15.068;2022-08-01T09:23:50;35.80;39.86
71839;SHT31;59687;37.520;15.068;2022-08-01T09:26:28;35.43;40.36
71839;SHT31;59687;37.520;15.068;2022-08-01T09:28:56;34.82;41.84
71839;SHT31;59687;37.520;15.068;2022-08-01T09:31:40;34.15;43.04
71839;SHT31;59687;37.520;15.068;2022-08-01T09:34:15;33.97;44.12
71839;SHT31;59687;37.520;15.068;2022-08-01T09:37:01;34.53;42.62
71839;SHT31;59687;37.520;15.068;2022-08-01T09:39:30;35.13;39.90
71839;SHT31;59687;37.520;15.068;2022-08-01T09:42:01;35.13;39.76
71839;SHT31;59687;37.520;15.068;2022-08-01T09:44:41;35.08;41.24
71839;SHT31;59687;37.520;15.068;2022-08-01T09:47:09;34.79;42.40
71839;SHT31;59687;37.520;15.068;2022-08-01T09:49:42;34.22;43.69
71839;SHT31;59687;37.520;15.068;2022-08-01T09:52:20;33.89;45.40
71839;SHT31;59687;37.520;15.068;2022-08-01T09:55:05;33.66;45.98
71839;SHT31;59687;37.520;15.068;2022-08-01T09:57:33;33.59;46.67
71839;SHT31;59687;37.520;15.068;2022-08-01T10:00:00;33.59;45.52
71839;SHT31;59687;37.520;15.068;2022-08-01T10:02:43;33.72;45.90
71839;SHT31;59687;37.520;15.068;2022-08-01T10:05:11;33.43;46.44
71839;SHT31;59687;37.520;15.068;2022-08-01T10:08:03;33.00;47.93
71839;SHT31;59687;37.520;15.068;2022-08-01T10:10:32;32.60;48.33
71839;SHT31;59687;37.520;15.068;2022-08-01T10:13:02;32.84;47.88
71839;SHT31;59687;37.520;15.068;2022-08-01T10:15:31;32.86;47.42
71839;SHT31;59687;37.520;15.068;2022-08-01T10:18:03;32.97;47.18
71839;SHT31;59687;37.520;15.068;2022-08-01T10:20:33;33.08;47.83
71839;SHT31;59687;37.520;15.068;2022-08-01T10:23:10;33.26;47.87
71839;SHT31;59687;37.520;15.068;2022-08-01T10:25:43;33.77;46.36
71839;SHT31;59687;37.520;15.068;2022-08-01T10:28:20;33.62;46.77
71839;SHT31;59687;37.520;15.068;2022-08-01T10:30:52;33.49;46.18
71839;SHT31;59687;37.520;15.068;2022-08-01T10:33:22;33.18;46.42
71839;SHT31;59687;37.520;15.068;2022-08-01T10:35:50;32.90;46.93
71839;SHT31;59687;37.520;15.068;2022-08-01T10:38:17;33.11;46.49
71839;SHT31;59687;37.520;15.068;2022-08-01T10:40:46;33.36;46.27
71839;SHT31;59687;37.520;15.068;2022-08-01T10:43:16;33.19;46.74
71839;SHT31;59687;37.520;15.068;2022-08-01T10:45:44;33.35;46.06
71839;SHT31;59687;37.520;15.068;2022-08-01T10:48:27;33.62;48.10
71839;SHT31;59687;37.520;15.068;2022-08-01T10:51:16;33.74;45.88
71839;SHT31;59687;37.520;15.068;2022-08-01T10:53:47;33.42;46.78
71839;SHT31;59687;37.520;15.068;2022-08-01T10:56:16;33.00;48.22
71839;SHT31;59687;37.520;15.068;2022-08-01T10:58:46;32.57;49.12
71839;SHT31;59687;37.520;15.068;2022-08-01T11:04:12;32.21;49.43
71839;SHT31;59687;37.520;15.068;2022-08-01T11:09:27;32.01;50.32
71839;SHT31;59687;37.520;15.068;2022-08-01T11:12:09;31.94;51.56
71839;SHT31;59687;37.520;15.068;2022-08-01T11:17:46;31.25;54.19
71839;SHT31;59687;37.520;15.068;2022-08-01T11:20:27;30.90;54.92
71839;SHT31;59687;37.520;15.068;2022-08-01T11:31:32;32.00;51.45
71839;SHT31;59687;37.520;15.068;2022-08-01T11:41:29;32.66;50.48
71839;SHT31;59687;37.520;15.068;2022-08-01T11:43:59;32.88;48.58
71839;SHT31;59687;37.520;15.068;2022-08-01T11:47:01;32.81;49.45
71839;SHT31;59687;37.520;15.068;2022-08-01T11:52:12;32.64;50.08
71839;SHT31;59687;37.520;15.068;2022-08-01T11:57:21;32.46;50.95
71839;SHT31;59687;37.520;15.068;2022-08-01T11:59:53;32.46;51.54
71839;SHT31;59687;37.520;15.068;2022-08-01T12:05:06;32.63;50.36
71839;SHT31;59687;37.520;15.068;2022-08-01T12:07:35;32.87;49.67
71839;SHT31;59687;37.520;15.068;2022-08-01T12:10:08;33.26;48.79
71839;SHT31;59687;37.520;15.068;2022-08-01T12:12:40;33.00;45.53
71839;SHT31;59687;37.520;15.068;2022-08-01T12:15:09;32.92;48.28
71839;SHT31;59687;37.520;15.068;2022-08-01T12:17:48;32.96;48.91
71839;SHT31;59687;37.520;15.068;2022-08-01T12:20:19;32.80;49.16
71839;SHT31;59687;37.520;15.068;2022-08-01T12:22:47;32.79;48.88
71839;SHT31;59687;37.520;15.068;2022-08-01T12:25:16;32.77;48.30
71839;SHT31;59687;37.520;15.068;2022-08-01T12:27:47;33.08;48.44
71839;SHT31;59687;37.520;15.068;2022-08-01T12:30:18;33.05;48.92
71839;SHT31;59687;37.520;15.068;2022-08-01T12:32:52;32.98;49.05
71839;SHT31;59687;37.520;15.068;2022-08-01T12:35:25;32.97;49.31
71839;SHT31;59687;37.520;15.068;2022-08-01T12:38:00;32.92;49.22
71839;SHT31;59687;37.520;15.068;2022-08-01T12:40:35;33.05;50.19
71839;SHT31;59687;37.520;15.068;2022-08-01T12:43:14;33.18;49.83
71839;SHT31;59687;37.520;15.068;2022-08-01T12:45:47;33.04;49.59
71839;SHT31;59687;37.520;15.068;2022-08-01T12:48:17;32.98;49.55
71839;SHT31;59687;37.520;15.068;2022-08-01T12:50:47;33.11;49.92
71839;SHT31;59687;37.520;15.068;2022-08-01T12:53:16;33.38;49.51
71839;SHT31;59687;37.520;15.068;2022-08-01T12:55:54;33.53;48.91
71839;SHT31;59687;37.520;15.068;2022-08-01T12:58:22;33.36;49.62
71839;SHT31;59687;37.520;15.068;2022-08-01T13:01:06;33.11;49.91
71839;SHT31;59687;37.520;15.068;2022-08-01T13:03:34;32.86;50.62
71839;SHT31;59687;37.520;15.068;2022-08-01T13:06:13;32.57;51.62
71839;SHT31;59687;37.520;15.068;2022-08-01T13:08:41;32.14;52.41
71839;SHT31;59687;37.520;15.068;2022-08-01T13:11:10;32.04;53.10
71839;SHT31;59687;37.520;15.068;2022-08-01T13:13:47;32.22;52.52
71839;SHT31;59687;37.520;15.068;2022-08-01T13:16:18;32.39;52.41
71839;SHT31;59687;37.520;15.068;2022-08-01T13:18:52;32.51;51.88
71839;SHT31;59687;37.520;15.068;2022-08-01T13:21:23;32.59;51.09
71839;SHT31;59687;37.520;15.068;2022-08-01T13:26:46;32.77;50.64
71839;SHT31;59687;37.520;15.068;2022-08-01T13:29:38;32.87;49.66
71839;SHT31;59687;37.520;15.068;2022-08-01T13:32:13;32.86;48.92
71839;SHT31;59687;37.520;15.068;2022-08-01T13:34:40;33.03;49.01
71839;SHT31;59687;37.520;15.068;2022-08-01T13:37:09;33.22;46.28
71839;SHT31;59687;37.520;15.068;2022-08-01T13:39:36;33.29;46.27
71839;SHT31;59687;37.520;15.068;2022-08-01T13:42:15;33.42;46.99
71839;SHT31;59687;37.520;15.068;2022-08-01T13:44:43;33.63;47.23
71839;SHT31;59687;37.520;15.068;2022-08-01T13:47:18;33.70;47.00
71839;SHT31;59687;37.520;15.068;2022-08-01T13:49:48;33.43;47.49
71839;SHT31;59687;37.520;15.068;2022-08-01T13:52:16;33.08;47.67
71839;SHT31;59687;37.520;15.068;2022-08-01T13:54:44;32.87;48.14
71839;SHT31;59687;37.520;15.068;2022-08-01T13:57:20;32.77;48.30
71839;SHT31;59687;37.520;15.068;2022-08-01T14:00:07;32.88;47.37
71839;SHT31;59687;37.520;15.068;2022-08-01T14:02:37;33.03;46.76
71839;SHT31;59687;37.520;15.068;2022-08-01T14:05:14;33.39;46.45
71839;SHT31;59687;37.520;15.068;2022-08-01T14:07:41;33.18;46.28
71839;SHT31;59687;37.520;15.068;2022-08-01T14:10:10;33.03;46.33
71839;SHT31;59687;37.520;15.068;2022-08-01T14:12:37;32.72;46.40
71839;SHT31;59687;37.520;15.068;2022-08-01T14:15:05;32.49;47.16
71839;SHT31;59687;37.520;15.068;2022-08-01T14:17:36;32.48;47.69
71839;SHT31;59687;37.520;15.068;2022-08-01T14:20:07;32.72;47.08
71839;SHT31;59687;37.520;15.068;2022-08-01T14:22:34;32.56;46.40
71839;SHT31;59687;37.520;15.068;2022-08-01T14:25:01;32.52;47.20
71839;SHT31;59687;37.520;15.068;2022-08-01T14:27:28;32.73;46.67
71839;SHT31;59687;37.520;15.068;2022-08-01T14:29:59;33.04;45.60
71839;SHT31;59687;37.520;15.068;2022-08-01T14:32:28;32.97;46.12
71839;SHT31;59687;37.520;15.068;2022-08-01T14:35:03;32.94;45.41
71839;SHT31;59687;37.520;15.068;2022-08-01T14:37:32;32.45;47.24
71839;SHT31;59687;37.520;15.068;2022-08-01T14:40:03;32.45;47.54
71839;SHT31;59687;37.520;15.068;2022-08-01T14:42:38;32.38;47.88
71839;SHT31;59687;37.520;15.068;2022-08-01T14:45:08;32.35;47.39
71839;SHT31;59687;37.520;15.068;2022-08-01T14:47:43;32.33;48.15
71839;SHT31;59687;37.520;15.068;2022-08-01T14:50:13;32.35;48.31
71839;SHT31;59687;37.520;15.068;2022-08-01T14:52:42;32.21;48.99
71839;SHT31;59687;37.520;15.068;2022-08-01T14:55:11;32.07;49.82
71839;SHT31;59687;37.520;15.068;2022-08-01T14:57:40;31.72;50.68
71839;SHT31;59687;37.520;15.068;2022-08-01T15:00:09;31.60;51.61
71839;SHT31;59687;37.520;15.068;2022-08-01T15:02:42;31.41;51.83
71839;SHT31;59687;37.520;15.068;2022-08-01T15:05:10;31.15;52.19
71839;SHT31;59687;37.520;15.068;2022-08-01T15:07:39;31.08;52.57
71839;SHT31;59687;37.520;15.068;2022-08-01T15:10:08;30.87;53.17
71839;SHT31;59687;37.520;15.068;2022-08-01T15:12:38;30.98;52.94
71839;SHT31;59687;37.520;15.068;2022-08-01T15:15:14;30.99;53.14
71839;SHT31;59687;37.520;15.068;2022-08-01T15:17:42;31.07;53.07
71839;SHT31;59687;37.520;15.068;2022-08-01T15:20:09;31.11;53.23
71839;SHT31;59687;37.520;15.068;2022-08-01T15:22:37;31.24;52.90
71839;SHT31;59687;37.520;15.068;2022-08-01T15:25:04;31.28;53.00
71839;SHT31;59687;37.520;15.068;2022-08-01T15:27:31;31.19;53.02
71839;SHT31;59687;37.520;15.068;2022-08-01T15:30:00;31.04;53.27
71839;SHT31;59687;37.520;15.068;2022-08-01T15:32:27;30.81;54.01
71839;SHT31;59687;37.520;15.068;2022-08-01T15:34:55;30.77;54.60
71839;SHT31;59687;37.520;15.068;2022-08-01T15:37:25;30.62;54.86
71839;SHT31;59687;37.520;15.068;2022-08-01T15:39:53;30.74;54.50
71839;SHT31;59687;37.520;15.068;2022-08-01T15:42:23;30.70;54.33
71839;SHT31;59687;37.520;15.068;2022-08-01T15:44:50;30.64;54.74
71839;SHT31;59687;37.520;15.068;2022-08-01T15:47:18;30.67;54.61
71839;SHT31;59687;37.520;15.068;2022-08-01T15:49:47;30.79;53.38
71839;SHT31;59687;37.520;15.068;2022-08-01T15:52:14;30.84;52.90
71839;SHT31;59687;37.520;15.068;2022-08-01T15:54:42;31.02;52.81
71839;SHT31;59687;37.520;15.068;2022-08-01T15:57:09;31.07;51.67
71839;SHT31;59687;37.520;15.068;2022-08-01T15:59:37;31.18;51.42
71839;SHT31;59687;37.520;15.068;2022-08-01T16:02:08;31.36;50.81
71839;SHT31;59687;37.520;15.068;2022-08-01T16:04:36;31.15;50.16
71839;SHT31;59687;37.520;15.068;2022-08-01T16:07:05;30.87;50.61
71839;SHT31;59687;37.520;15.068;2022-08-01T16:09:35;30.70;50.94
71839;SHT31;59687;37.520;15.068;2022-08-01T16:12:05;30.67;51.32
71839;SHT31;59687;37.520;15.068;2022-08-01T16:14:32;30.73;51.25
71839;SHT31;59687;37.520;15.068;2022-08-01T16:17:01;30.70;50.82
71839;SHT31;59687;37.520;15.068;2022-08-01T16:19:30;30.69;50.59
71839;SHT31;59687;37.520;15.068;2022-08-01T16:21:58;30.86;50.25
71839;SHT31;59687;37.520;15.068;2022-08-01T16:24:25;30.87;49.75
71839;SHT31;59687;37.520;15.068;2022-08-01T16:26:54;30.88;49.56